sensor_id;sensor_type;location;lat;lon;timestamp;P1;durP1;ratioP1;P2;durP2;ratioP2
34902;SDS011;21114;44.840;0.214;2024-02-16T00:02:25;7.82;;;4.78;;
34902;SDS011;21114;44.840;0.214;2024-02-16T00:04:51;10.82;;;4.90;;
34902;SDS011;21114;44.840;0.214;2024-02-16T00:07:17;9.48;;;4.97;;
34902;SDS011;21114;44.840;0.214;2024-02-16T00:09:43;9.27;;;4.57;;
34902;SDS011;21114;44.840;0.214;2024-02-16T00:12:10;16.58;;;5.82;;
34902;SDS011;21114;44.840;0.214;2024-02-16T00:15:24;13.30;;;5.82;;
34902;SDS011;21114;44.840;0.214;2024-02-16T00:18:38;11.25;;;5.28;;
34902;SDS011;21114;44.840;0.214;2024-02-16T00:21:04;10.88;;;4.65;;
34902;SDS011;21114;44.840;0.214;2024-02-16T00:24:19;10.50;;;4.95;;
34902;SDS011;21114;44.840;0.214;2024-02-16T00:26:45;22.98;;;8.02;;
34902;SDS011;21114;44.840;0.214;2024-02-16T00:29:11;11.07;;;6.07;;
34902;SDS011;21114;44.840;0.214;2024-02-16T00:31:37;12.75;;;7.00;;
34902;SDS011;21114;44.840;0.214;2024-02-16T00:34:04;12.07;;;6.10;;
34902;SDS011;21114;44.840;0.214;2024-02-16T00:37:18;35.55;;;8.05;;
34902;SDS011;21114;44.840;0.214;2024-02-16T00:40:35;12.88;;;5.43;;
34902;SDS011;21114;44.840;0.214;2024-02-16T00:43:49;11.88;;;5.78;;
34902;SDS011;21114;44.840;0.214;2024-02-16T00:46:37;7.88;;;5.47;;
34902;SDS011;21114;44.840;0.214;2024-02-16T00:49:42;9.30;;;5.35;;
34902;SDS011;21114;44.840;0.214;2024-02-16T00:52:57;20.92;;;5.82;;
34902;SDS011;21114;44.840;0.214;2024-02-16T00:55:25;15.45;;;5.65;;
34902;SDS011;21114;44.840;0.214;2024-02-16T00:58:40;10.10;;;4.43;;
34902;SDS011;21114;44.840;0.214;2024-02-16T01:01:31;11.30;;;6.18;;
34902;SDS011;21114;44.840;0.214;2024-02-16T01:03:58;14.38;;;6.22;;
34902;SDS011;21114;44.840;0.214;2024-02-16T01:06:24;10.15;;;5.35;;
34902;SDS011;21114;44.840;0.214;2024-02-16T01:08:50;14.43;;;6.25;;
34902;SDS011;21114;44.840;0.214;2024-02-16T01:11:16;9.27;;;4.80;;
34902;SDS011;21114;44.840;0.214;2024-02-16T01:13:42;10.27;;;4.45;;
34902;SDS011;21114;44.840;0.214;2024-02-16T01:16:08;13.13;;;5.30;;
34902;SDS011;21114;44.840;0.214;2024-02-16T01:19:22;21.50;;;6.50;;
34902;SDS011;21114;44.840;0.214;2024-02-16T01:22:37;10.63;;;4.65;;
34902;SDS011;21114;44.840;0.214;2024-02-16T01:25:52;8.30;;;5.40;;
34902;SDS011;21114;44.840;0.214;2024-02-16T01:28:18;9.18;;;4.88;;
34902;SDS011;21114;44.840;0.214;2024-02-16T01:30:44;13.02;;;5.20;;
34902;SDS011;21114;44.840;0.214;2024-02-16T01:33:10;11.52;;;4.50;;
34902;SDS011;21114;44.840;0.214;2024-02-16T01:35:36;9.25;;;3.90;;
34902;SDS011;21114;44.840;0.214;2024-02-16T01:38:02;13.85;;;5.25;;
34902;SDS011;21114;44.840;0.214;2024-02-16T01:40:28;6.47;;;3.58;;
34902;SDS011;21114;44.840;0.214;2024-02-16T01:42:54;8.40;;;3.38;;
34902;SDS011;21114;44.840;0.214;2024-02-16T01:46:09;6.70;;;3.67;;
34902;SDS011;21114;44.840;0.214;2024-02-16T01:49:23;8.75;;;4.03;;
34902;SDS011;21114;44.840;0.214;2024-02-16T01:52:38;7.45;;;3.35;;
34902;SDS011;21114;44.840;0.214;2024-02-16T01:55:04;7.18;;;2.67;;
34902;SDS011;21114;44.840;0.214;2024-02-16T01:57:34;10.82;;;3.03;;
34902;SDS011;21114;44.840;0.214;2024-02-16T02:00:48;7.60;;;3.25;;
34902;SDS011;21114;44.840;0.214;2024-02-16T02:03:14;9.52;;;3.83;;
34902;SDS011;21114;44.840;0.214;2024-02-16T02:06:31;11.55;;;3.08;;
34902;SDS011;21114;44.840;0.214;2024-02-16T02:09:46;10.80;;;3.47;;
34902;SDS011;21114;44.840;0.214;2024-02-16T02:13:01;6.95;;;2.42;;
34902;SDS011;21114;44.840;0.214;2024-02-16T02:16:15;10.00;;;3.88;;
34902;SDS011;21114;44.840;0.214;2024-02-16T02:19:30;6.65;;;2.17;;
34902;SDS011;21114;44.840;0.214;2024-02-16T02:21:57;5.30;;;2.88;;
34902;SDS011;21114;44.840;0.214;2024-02-16T02:24:23;4.93;;;2.40;;
34902;SDS011;21114;44.840;0.214;2024-02-16T02:27:36;7.28;;;1.88;;
34902;SDS011;21114;44.840;0.214;2024-02-16T02:30:50;9.00;;;3.08;;
34902;SDS011;21114;44.840;0.214;2024-02-16T02:33:18;8.95;;;3.35;;
34902;SDS011;21114;44.840;0.214;2024-02-16T02:35:45;8.65;;;2.03;;
34902;SDS011;21114;44.840;0.214;2024-02-16T02:38:59;8.63;;;2.33;;
34902;SDS011;21114;44.840;0.214;2024-02-16T02:41:54;6.30;;;1.98;;
34902;SDS011;21114;44.840;0.214;2024-02-16T02:44:21;11.32;;;3.47;;
34902;SDS011;21114;44.840;0.214;2024-02-16T02:47:36;8.90;;;2.28;;
34902;SDS011;21114;44.840;0.214;2024-02-16T02:50:50;7.38;;;2.35;;
34902;SDS011;21114;44.840;0.214;2024-02-16T02:53:16;6.28;;;2.33;;
34902;SDS011;21114;44.840;0.214;2024-02-16T02:55:43;8.82;;;1.85;;
34902;SDS011;21114;44.840;0.214;2024-02-16T02:58:09;11.30;;;3.05;;
34902;SDS011;21114;44.840;0.214;2024-02-16T03:00:35;9.98;;;4.00;;
34902;SDS011;21114;44.840;0.214;2024-02-16T03:03:32;8.55;;;3.63;;
34902;SDS011;21114;44.840;0.214;2024-02-16T03:05:59;14.02;;;2.90;;
34902;SDS011;21114;44.840;0.214;2024-02-16T03:08:25;12.20;;;2.45;;
34902;SDS011;21114;44.840;0.214;2024-02-16T03:10:51;15.20;;;5.70;;
34902;SDS011;21114;44.840;0.214;2024-02-16T03:13:17;12.90;;;3.53;;
34902;SDS011;21114;44.840;0.214;2024-02-16T03:16:33;10.25;;;1.92;;
34902;SDS011;21114;44.840;0.214;2024-02-16T03:18:59;7.97;;;1.77;;
34902;SDS011;21114;44.840;0.214;2024-02-16T03:21:25;12.10;;;2.22;;
34902;SDS011;21114;44.840;0.214;2024-02-16T03:23:52;8.95;;;4.28;;
34902;SDS011;21114;44.840;0.214;2024-02-16T03:26:18;12.35;;;4.65;;
34902;SDS011;21114;44.840;0.214;2024-02-16T03:29:33;9.02;;;2.30;;
34902;SDS011;21114;44.840;0.214;2024-02-16T03:31:59;7.20;;;1.83;;
34902;SDS011;21114;44.840;0.214;2024-02-16T03:35:14;9.90;;;2.40;;
34902;SDS011;21114;44.840;0.214;2024-02-16T03:38:28;7.97;;;2.70;;
34902;SDS011;21114;44.840;0.214;2024-02-16T03:40:54;6.45;;;1.80;;
34902;SDS011;21114;44.840;0.214;2024-02-16T03:43:21;9.90;;;2.70;;
34902;SDS011;21114;44.840;0.214;2024-02-16T03:46:39;8.00;;;1.85;;
34902;SDS011;21114;44.840;0.214;2024-02-16T03:49:05;12.32;;;2.67;;
34902;SDS011;21114;44.840;0.214;2024-02-16T03:51:31;8.65;;;1.92;;
34902;SDS011;21114;44.840;0.214;2024-02-16T03:53:57;6.93;;;2.13;;
34902;SDS011;21114;44.840;0.214;2024-02-16T03:56:24;9.75;;;3.47;;
34902;SDS011;21114;44.840;0.214;2024-02-16T03:58:50;9.85;;;2.47;;
34902;SDS011;21114;44.840;0.214;2024-02-16T04:02:04;10.88;;;2.90;;
34902;SDS011;21114;44.840;0.214;2024-02-16T04:05:19;8.07;;;2.60;;
34902;SDS011;21114;44.840;0.214;2024-02-16T04:08:34;8.18;;;2.10;;
34902;SDS011;21114;44.840;0.214;2024-02-16T04:11:48;11.85;;;2.80;;
34902;SDS011;21114;44.840;0.214;2024-02-16T04:15:03;10.25;;;2.60;;
34902;SDS011;21114;44.840;0.214;2024-02-16T04:18:18;12.10;;;3.90;;
34902;SDS011;21114;44.840;0.214;2024-02-16T04:21:32;8.82;;;2.25;;
34902;SDS011;21114;44.840;0.214;2024-02-16T04:23:59;7.80;;;3.03;;
34902;SDS011;21114;44.840;0.214;2024-02-16T04:26:25;12.40;;;3.08;;
34902;SDS011;21114;44.840;0.214;2024-02-16T04:28:51;15.70;;;4.20;;
34902;SDS011;21114;44.840;0.214;2024-02-16T04:31:35;9.25;;;2.08;;
34902;SDS011;21114;44.840;0.214;2024-02-16T04:34:01;12.02;;;3.45;;
34902;SDS011;21114;44.840;0.214;2024-02-16T04:37:17;11.00;;;3.25;;
34902;SDS011;21114;44.840;0.214;2024-02-16T04:39:44;15.85;;;2.85;;
34902;SDS011;21114;44.840;0.214;2024-02-16T04:42:10;15.00;;;4.07;;
34902;SDS011;21114;44.840;0.214;2024-02-16T04:45:24;16.80;;;4.75;;
34902;SDS011;21114;44.840;0.214;2024-02-16T04:48:39;12.00;;;2.60;;
34902;SDS011;21114;44.840;0.214;2024-02-16T04:51:05;17.75;;;6.00;;
34902;SDS011;21114;44.840;0.214;2024-02-16T04:54:19;14.63;;;3.38;;
34902;SDS011;21114;44.840;0.214;2024-02-16T04:56:45;15.13;;;2.63;;
34902;SDS011;21114;44.840;0.214;2024-02-16T04:59:11;12.75;;;2.85;;
34902;SDS011;21114;44.840;0.214;2024-02-16T05:02:26;15.70;;;2.83;;
34902;SDS011;21114;44.840;0.214;2024-02-16T05:04:52;13.82;;;3.53;;
34902;SDS011;21114;44.840;0.214;2024-02-16T05:07:18;15.13;;;3.35;;
34902;SDS011;21114;44.840;0.214;2024-02-16T05:09:44;14.00;;;3.55;;
34902;SDS011;21114;44.840;0.214;2024-02-16T05:12:59;15.52;;;3.08;;
34902;SDS011;21114;44.840;0.214;2024-02-16T05:15:25;27.33;;;5.10;;
34902;SDS011;21114;44.840;0.214;2024-02-16T05:17:51;17.63;;;4.82;;
34902;SDS011;21114;44.840;0.214;2024-02-16T05:21:06;17.23;;;3.33;;
34902;SDS011;21114;44.840;0.214;2024-02-16T05:24:20;10.43;;;2.95;;
34902;SDS011;21114;44.840;0.214;2024-02-16T05:27:34;10.10;;;2.28;;
34902;SDS011;21114;44.840;0.214;2024-02-16T05:30:00;14.07;;;4.28;;
34902;SDS011;21114;44.840;0.214;2024-02-16T05:32:26;14.20;;;2.85;;
34902;SDS011;21114;44.840;0.214;2024-02-16T05:34:52;13.02;;;3.40;;
34902;SDS011;21114;44.840;0.214;2024-02-16T05:37:18;9.88;;;3.55;;
34902;SDS011;21114;44.840;0.214;2024-02-16T05:39:45;14.70;;;4.57;;
34902;SDS011;21114;44.840;0.214;2024-02-16T05:43:10;7.70;;;2.33;;
34902;SDS011;21114;44.840;0.214;2024-02-16T05:45:37;15.82;;;3.50;;
34902;SDS011;21114;44.840;0.214;2024-02-16T05:48:03;8.82;;;2.63;;
34902;SDS011;21114;44.840;0.214;2024-02-16T05:50:29;7.85;;;2.75;;
34902;SDS011;21114;44.840;0.214;2024-02-16T05:52:55;12.65;;;2.78;;
34902;SDS011;21114;44.840;0.214;2024-02-16T05:56:12;7.88;;;2.83;;
34902;SDS011;21114;44.840;0.214;2024-02-16T05:59:26;12.85;;;2.53;;
34902;SDS011;21114;44.840;0.214;2024-02-16T06:01:52;11.95;;;2.28;;
34902;SDS011;21114;44.840;0.214;2024-02-16T06:04:18;12.80;;;4.45;;
34902;SDS011;21114;44.840;0.214;2024-02-16T06:06:44;18.48;;;3.65;;
34902;SDS011;21114;44.840;0.214;2024-02-16T06:09:11;11.65;;;3.63;;
34902;SDS011;21114;44.840;0.214;2024-02-16T06:11:37;10.90;;;3.08;;
34902;SDS011;21114;44.840;0.214;2024-02-16T06:14:52;8.25;;;2.92;;
34902;SDS011;21114;44.840;0.214;2024-02-16T06:18:06;8.30;;;3.40;;
34902;SDS011;21114;44.840;0.214;2024-02-16T06:20:32;15.27;;;4.05;;
34902;SDS011;21114;44.840;0.214;2024-02-16T06:22:58;14.93;;;3.80;;
34902;SDS011;21114;44.840;0.214;2024-02-16T06:25:24;15.48;;;3.55;;
34902;SDS011;21114;44.840;0.214;2024-02-16T06:27:50;9.15;;;2.72;;
34902;SDS011;21114;44.840;0.214;2024-02-16T06:30:16;9.60;;;2.58;;
34902;SDS011;21114;44.840;0.214;2024-02-16T06:33:31;14.25;;;4.38;;
34902;SDS011;21114;44.840;0.214;2024-02-16T06:36:45;9.68;;;3.58;;
34902;SDS011;21114;44.840;0.214;2024-02-16T06:39:11;14.73;;;6.60;;
34902;SDS011;21114;44.840;0.214;2024-02-16T06:42:26;9.85;;;3.83;;
34902;SDS011;21114;44.840;0.214;2024-02-16T06:44:52;11.50;;;3.63;;
34902;SDS011;21114;44.840;0.214;2024-02-16T06:47:18;15.45;;;4.80;;
34902;SDS011;21114;44.840;0.214;2024-02-16T06:49:45;14.68;;;5.05;;
34902;SDS011;21114;44.840;0.214;2024-02-16T06:52:11;12.82;;;4.25;;
34902;SDS011;21114;44.840;0.214;2024-02-16T06:54:37;10.15;;;3.60;;
34902;SDS011;21114;44.840;0.214;2024-02-16T06:57:03;16.58;;;7.47;;
34902;SDS011;21114;44.840;0.214;2024-02-16T06:59:30;12.38;;;4.28;;
34902;SDS011;21114;44.840;0.214;2024-02-16T07:02:35;10.70;;;5.25;;
34902;SDS011;21114;44.840;0.214;2024-02-16T07:05:01;19.15;;;4.00;;
34902;SDS011;21114;44.840;0.214;2024-02-16T07:08:16;16.02;;;5.93;;
34902;SDS011;21114;44.840;0.214;2024-02-16T07:10:42;10.07;;;2.97;;
34902;SDS011;21114;44.840;0.214;2024-02-16T07:13:08;12.00;;;4.38;;
34902;SDS011;21114;44.840;0.214;2024-02-16T07:16:24;8.52;;;3.33;;
34902;SDS011;21114;44.840;0.214;2024-02-16T07:18:50;16.38;;;3.60;;
34902;SDS011;21114;44.840;0.214;2024-02-16T07:21:16;11.63;;;4.40;;
34902;SDS011;21114;44.840;0.214;2024-02-16T07:24:21;17.13;;;4.82;;
34902;SDS011;21114;44.840;0.214;2024-02-16T07:26:47;20.77;;;5.35;;
34902;SDS011;21114;44.840;0.214;2024-02-16T07:29:13;16.27;;;5.10;;
34902;SDS011;21114;44.840;0.214;2024-02-16T07:31:41;12.57;;;4.82;;
34902;SDS011;21114;44.840;0.214;2024-02-16T07:34:07;19.92;;;4.35;;
34902;SDS011;21114;44.840;0.214;2024-02-16T07:36:34;12.82;;;5.20;;
34902;SDS011;21114;44.840;0.214;2024-02-16T07:39:01;12.13;;;5.32;;
34902;SDS011;21114;44.840;0.214;2024-02-16T07:41:29;10.07;;;4.43;;
34902;SDS011;21114;44.840;0.214;2024-02-16T07:44:39;14.27;;;4.55;;
34902;SDS011;21114;44.840;0.214;2024-02-16T07:47:05;12.40;;;4.10;;
34902;SDS011;21114;44.840;0.214;2024-02-16T07:49:31;20.23;;;5.55;;
34902;SDS011;21114;44.840;0.214;2024-02-16T07:51:57;11.35;;;4.07;;
34902;SDS011;21114;44.840;0.214;2024-02-16T07:54:23;18.65;;;5.57;;
34902;SDS011;21114;44.840;0.214;2024-02-16T07:56:49;18.17;;;6.75;;
34902;SDS011;21114;44.840;0.214;2024-02-16T07:59:15;17.23;;;4.00;;
34902;SDS011;21114;44.840;0.214;2024-02-16T08:02:31;13.77;;;5.57;;
34902;SDS011;21114;44.840;0.214;2024-02-16T08:05:46;14.63;;;4.38;;
34902;SDS011;21114;44.840;0.214;2024-02-16T08:08:12;9.55;;;3.47;;
34902;SDS011;21114;44.840;0.214;2024-02-16T08:10:38;10.52;;;3.67;;
34902;SDS011;21114;44.840;0.214;2024-02-16T08:13:04;12.32;;;5.05;;
34902;SDS011;21114;44.840;0.214;2024-02-16T08:15:30;18.27;;;4.57;;
34902;SDS011;21114;44.840;0.214;2024-02-16T08:17:56;16.25;;;3.85;;
34902;SDS011;21114;44.840;0.214;2024-02-16T08:20:22;18.33;;;4.97;;
34902;SDS011;21114;44.840;0.214;2024-02-16T08:22:48;14.38;;;4.35;;
34902;SDS011;21114;44.840;0.214;2024-02-16T08:25:14;25.10;;;6.72;;
34902;SDS011;21114;44.840;0.214;2024-02-16T08:27:40;20.48;;;5.28;;
34902;SDS011;21114;44.840;0.214;2024-02-16T08:30:07;15.98;;;5.88;;
34902;SDS011;21114;44.840;0.214;2024-02-16T08:33:21;16.73;;;7.20;;
34902;SDS011;21114;44.840;0.214;2024-02-16T08:36:36;16.60;;;5.00;;
34902;SDS011;21114;44.840;0.214;2024-02-16T08:39:04;18.85;;;6.80;;
34902;SDS011;21114;44.840;0.214;2024-02-16T08:42:19;18.33;;;6.32;;
34902;SDS011;21114;44.840;0.214;2024-02-16T08:44:47;13.50;;;7.03;;
34902;SDS011;21114;44.840;0.214;2024-02-16T08:47:14;11.45;;;5.88;;
34902;SDS011;21114;44.840;0.214;2024-02-16T08:49:41;16.65;;;5.68;;
34902;SDS011;21114;44.840;0.214;2024-02-16T08:52:07;14.55;;;5.68;;
34902;SDS011;21114;44.840;0.214;2024-02-16T08:55:22;15.13;;;5.18;;
34902;SDS011;21114;44.840;0.214;2024-02-16T08:58:33;16.50;;;5.57;;
34902;SDS011;21114;44.840;0.214;2024-02-16T09:00:59;23.50;;;6.25;;
34902;SDS011;21114;44.840;0.214;2024-02-16T09:04:13;14.75;;;4.72;;
34902;SDS011;21114;44.840;0.214;2024-02-16T09:06:40;25.63;;;4.53;;
34902;SDS011;21114;44.840;0.214;2024-02-16T09:09:55;13.95;;;5.00;;
34902;SDS011;21114;44.840;0.214;2024-02-16T09:12:21;16.45;;;5.47;;
34902;SDS011;21114;44.840;0.214;2024-02-16T09:14:47;15.20;;;4.13;;
34902;SDS011;21114;44.840;0.214;2024-02-16T09:17:13;22.10;;;6.07;;
34902;SDS011;21114;44.840;0.214;2024-02-16T09:19:39;13.48;;;5.57;;
34902;SDS011;21114;44.840;0.214;2024-02-16T09:22:54;14.52;;;5.28;;
34902;SDS011;21114;44.840;0.214;2024-02-16T09:25:20;16.88;;;5.78;;
34902;SDS011;21114;44.840;0.214;2024-02-16T09:27:46;14.52;;;4.90;;
34902;SDS011;21114;44.840;0.214;2024-02-16T09:30:12;12.75;;;3.30;;
34902;SDS011;21114;44.840;0.214;2024-02-16T09:33:27;9.75;;;3.70;;
34902;SDS011;21114;44.840;0.214;2024-02-16T09:35:53;14.07;;;5.03;;
34902;SDS011;21114;44.840;0.214;2024-02-16T09:38:19;13.20;;;4.13;;
34902;SDS011;21114;44.840;0.214;2024-02-16T09:41:34;14.70;;;4.20;;
34902;SDS011;21114;44.840;0.214;2024-02-16T09:44:49;12.30;;;3.45;;
34902;SDS011;21114;44.840;0.214;2024-02-16T09:48:04;16.52;;;3.95;;
34902;SDS011;21114;44.840;0.214;2024-02-16T09:51:21;14.43;;;3.28;;
34902;SDS011;21114;44.840;0.214;2024-02-16T09:53:50;12.68;;;3.25;;
34902;SDS011;21114;44.840;0.214;2024-02-16T09:56:23;13.07;;;3.53;;
34902;SDS011;21114;44.840;0.214;2024-02-16T09:59:37;17.20;;;3.72;;
34902;SDS011;21114;44.840;0.214;2024-02-16T10:02:52;17.38;;;5.72;;
34902;SDS011;21114;44.840;0.214;2024-02-16T10:05:20;15.60;;;3.78;;
34902;SDS011;21114;44.840;0.214;2024-02-16T10:08:46;18.17;;;3.63;;
34902;SDS011;21114;44.840;0.214;2024-02-16T10:12:01;14.48;;;5.05;;
34902;SDS011;21114;44.840;0.214;2024-02-16T10:15:21;28.55;;;6.88;;
34902;SDS011;21114;44.840;0.214;2024-02-16T10:18:36;22.40;;;3.83;;
34902;SDS011;21114;44.840;0.214;2024-02-16T10:21:50;13.13;;;4.63;;
34902;SDS011;21114;44.840;0.214;2024-02-16T10:25:08;18.65;;;5.53;;
34902;SDS011;21114;44.840;0.214;2024-02-16T10:28:10;16.77;;;4.55;;
34902;SDS011;21114;44.840;0.214;2024-02-16T10:31:08;12.15;;;4.78;;
34902;SDS011;21114;44.840;0.214;2024-02-16T10:33:34;15.18;;;3.45;;
34902;SDS011;21114;44.840;0.214;2024-02-16T10:36:00;14.43;;;3.63;;
34902;SDS011;21114;44.840;0.214;2024-02-16T10:39:16;12.90;;;3.22;;
34902;SDS011;21114;44.840;0.214;2024-02-16T10:41:43;10.80;;;3.42;;
34902;SDS011;21114;44.840;0.214;2024-02-16T10:44:58;14.43;;;5.38;;
34902;SDS011;21114;44.840;0.214;2024-02-16T10:48:11;13.07;;;2.88;;
34902;SDS011;21114;44.840;0.214;2024-02-16T10:51:06;12.07;;;3.70;;
34902;SDS011;21114;44.840;0.214;2024-02-16T10:54:17;15.93;;;3.40;;
34902;SDS011;21114;44.840;0.214;2024-02-16T10:57:35;7.88;;;3.53;;
34902;SDS011;21114;44.840;0.214;2024-02-16T11:00:52;11.27;;;2.92;;
34902;SDS011;21114;44.840;0.214;2024-02-16T11:04:11;14.88;;;2.78;;
34902;SDS011;21114;44.840;0.214;2024-02-16T11:07:25;13.13;;;4.10;;
34902;SDS011;21114;44.840;0.214;2024-02-16T11:09:51;19.42;;;5.88;;
34902;SDS011;21114;44.840;0.214;2024-02-16T11:12:17;11.90;;;3.22;;
34902;SDS011;21114;44.840;0.214;2024-02-16T11:14:44;9.27;;;2.30;;
34902;SDS011;21114;44.840;0.214;2024-02-16T11:18:03;9.30;;;3.17;;
34902;SDS011;21114;44.840;0.214;2024-02-16T11:21:17;4.65;;;1.75;;
34902;SDS011;21114;44.840;0.214;2024-02-16T11:23:44;7.10;;;2.22;;
34902;SDS011;21114;44.840;0.214;2024-02-16T11:27:00;5.78;;;2.13;;
34902;SDS011;21114;44.840;0.214;2024-02-16T11:30:15;6.65;;;2.05;;
34902;SDS011;21114;44.840;0.214;2024-02-16T11:33:12;8.70;;;3.97;;
34902;SDS011;21114;44.840;0.214;2024-02-16T11:35:38;12.82;;;2.92;;
34902;SDS011;21114;44.840;0.214;2024-02-16T11:38:52;6.68;;;2.30;;
34902;SDS011;21114;44.840;0.214;2024-02-16T11:42:09;8.82;;;2.65;;
34902;SDS011;21114;44.840;0.214;2024-02-16T11:45:24;12.95;;;2.67;;
34902;SDS011;21114;44.840;0.214;2024-02-16T11:47:51;6.72;;;2.15;;
34902;SDS011;21114;44.840;0.214;2024-02-16T11:50:17;14.13;;;2.83;;
34902;SDS011;21114;44.840;0.214;2024-02-16T11:52:44;16.60;;;3.88;;
34902;SDS011;21114;44.840;0.214;2024-02-16T11:56:00;11.02;;;2.63;;
34902;SDS011;21114;44.840;0.214;2024-02-16T11:59:14;10.77;;;3.00;;
34902;SDS011;21114;44.840;0.214;2024-02-16T12:02:36;9.05;;;2.10;;
34902;SDS011;21114;44.840;0.214;2024-02-16T12:05:53;8.25;;;2.08;;
34902;SDS011;21114;44.840;0.214;2024-02-16T12:09:08;11.88;;;2.97;;
34902;SDS011;21114;44.840;0.214;2024-02-16T12:12:22;7.95;;;2.17;;
34902;SDS011;21114;44.840;0.214;2024-02-16T12:15:40;9.35;;;2.00;;
34902;SDS011;21114;44.840;0.214;2024-02-16T12:19:02;9.32;;;2.63;;
34902;SDS011;21114;44.840;0.214;2024-02-16T12:22:17;9.80;;;2.30;;
34902;SDS011;21114;44.840;0.214;2024-02-16T12:25:31;7.75;;;2.70;;
34902;SDS011;21114;44.840;0.214;2024-02-16T12:27:57;13.50;;;4.30;;
34902;SDS011;21114;44.840;0.214;2024-02-16T12:30:23;15.93;;;4.45;;
34902;SDS011;21114;44.840;0.214;2024-02-16T12:32:50;9.15;;;2.30;;
34902;SDS011;21114;44.840;0.214;2024-02-16T12:35:16;10.93;;;2.22;;
34902;SDS011;21114;44.840;0.214;2024-02-16T12:38:13;11.73;;;4.38;;
34902;SDS011;21114;44.840;0.214;2024-02-16T12:41:29;10.68;;;3.28;;
34902;SDS011;21114;44.840;0.214;2024-02-16T12:44:43;11.73;;;4.72;;
34902;SDS011;21114;44.840;0.214;2024-02-16T12:47:58;10.23;;;3.13;;
34902;SDS011;21114;44.840;0.214;2024-02-16T12:50:24;7.47;;;1.77;;
34902;SDS011;21114;44.840;0.214;2024-02-16T12:52:50;9.10;;;3.85;;
34902;SDS011;21114;44.840;0.214;2024-02-16T12:55:16;18.05;;;3.75;;
34902;SDS011;21114;44.840;0.214;2024-02-16T12:57:43;6.88;;;2.17;;
34902;SDS011;21114;44.840;0.214;2024-02-16T13:00:57;8.05;;;2.42;;
34902;SDS011;21114;44.840;0.214;2024-02-16T13:03:23;9.95;;;4.10;;
34902;SDS011;21114;44.840;0.214;2024-02-16T13:05:49;5.63;;;1.63;;
34902;SDS011;21114;44.840;0.214;2024-02-16T13:08:15;6.93;;;3.17;;
34902;SDS011;21114;44.840;0.214;2024-02-16T13:10:41;7.72;;;2.08;;
34902;SDS011;21114;44.840;0.214;2024-02-16T13:13:07;9.52;;;2.90;;
34902;SDS011;21114;44.840;0.214;2024-02-16T13:15:33;10.23;;;2.78;;
34902;SDS011;21114;44.840;0.214;2024-02-16T13:18:48;7.18;;;2.08;;
34902;SDS011;21114;44.840;0.214;2024-02-16T13:21:14;9.38;;;1.83;;
34902;SDS011;21114;44.840;0.214;2024-02-16T13:23:40;6.82;;;1.38;;
34902;SDS011;21114;44.840;0.214;2024-02-16T13:26:06;5.57;;;2.30;;
34902;SDS011;21114;44.840;0.214;2024-02-16T13:28:32;8.07;;;1.75;;
34902;SDS011;21114;44.840;0.214;2024-02-16T13:31:47;6.97;;;1.58;;
34902;SDS011;21114;44.840;0.214;2024-02-16T13:34:13;7.70;;;2.17;;
34902;SDS011;21114;44.840;0.214;2024-02-16T13:36:42;6.97;;;1.42;;
34902;SDS011;21114;44.840;0.214;2024-02-16T13:39:08;6.00;;;2.17;;
34902;SDS011;21114;44.840;0.214;2024-02-16T13:41:35;5.22;;;1.50;;
34902;SDS011;21114;44.840;0.214;2024-02-16T13:44:01;5.95;;;1.17;;
34902;SDS011;21114;44.840;0.214;2024-02-16T13:46:27;3.95;;;1.60;;
34902;SDS011;21114;44.840;0.214;2024-02-16T13:48:53;7.47;;;1.30;;
34902;SDS011;21114;44.840;0.214;2024-02-16T13:51:21;8.00;;;1.10;;
34902;SDS011;21114;44.840;0.214;2024-02-16T13:53:47;8.27;;;1.88;;
34902;SDS011;21114;44.840;0.214;2024-02-16T13:56:16;5.65;;;2.15;;
34902;SDS011;21114;44.840;0.214;2024-02-16T13:58:42;5.38;;;2.00;;
34902;SDS011;21114;44.840;0.214;2024-02-16T14:01:08;2.67;;;1.15;;
34902;SDS011;21114;44.840;0.214;2024-02-16T14:03:35;6.80;;;1.83;;
34902;SDS011;21114;44.840;0.214;2024-02-16T14:06:02;7.15;;;1.80;;
34902;SDS011;21114;44.840;0.214;2024-02-16T14:08:28;5.38;;;1.00;;
34902;SDS011;21114;44.840;0.214;2024-02-16T14:10:55;8.65;;;1.48;;
34902;SDS011;21114;44.840;0.214;2024-02-16T14:13:21;4.75;;;2.17;;
34902;SDS011;21114;44.840;0.214;2024-02-16T14:15:49;5.88;;;2.92;;
34902;SDS011;21114;44.840;0.214;2024-02-16T14:18:15;7.78;;;2.28;;
34902;SDS011;21114;44.840;0.214;2024-02-16T14:20:42;5.18;;;1.20;;
34902;SDS011;21114;44.840;0.214;2024-02-16T14:23:08;5.57;;;1.00;;
34902;SDS011;21114;44.840;0.214;2024-02-16T14:25:35;5.30;;;1.85;;
34902;SDS011;21114;44.840;0.214;2024-02-16T14:28:02;7.63;;;1.40;;
34902;SDS011;21114;44.840;0.214;2024-02-16T14:30:29;3.70;;;1.40;;
34902;SDS011;21114;44.840;0.214;2024-02-16T14:32:57;7.07;;;1.45;;
34902;SDS011;21114;44.840;0.214;2024-02-16T14:35:23;4.38;;;0.93;;
34902;SDS011;21114;44.840;0.214;2024-02-16T14:37:49;2.95;;;1.35;;
34902;SDS011;21114;44.840;0.214;2024-02-16T14:40:15;8.55;;;2.72;;
34902;SDS011;21114;44.840;0.214;2024-02-16T14:42:44;4.63;;;1.40;;
34902;SDS011;21114;44.840;0.214;2024-02-16T14:45:10;6.30;;;1.13;;
34902;SDS011;21114;44.840;0.214;2024-02-16T14:47:44;1.50;;;0.70;;
34902;SDS011;21114;44.840;0.214;2024-02-16T14:50:10;6.60;;;2.25;;
34902;SDS011;21114;44.840;0.214;2024-02-16T14:52:38;7.68;;;1.33;;
34902;SDS011;21114;44.840;0.214;2024-02-16T14:55:04;1.73;;;0.70;;
34902;SDS011;21114;44.840;0.214;2024-02-16T14:57:35;6.35;;;2.20;;
34902;SDS011;21114;44.840;0.214;2024-02-16T15:00:50;5.82;;;2.05;;
34902;SDS011;21114;44.840;0.214;2024-02-16T15:04:04;3.78;;;1.30;;
34902;SDS011;21114;44.840;0.214;2024-02-16T15:07:19;5.35;;;2.47;;
34902;SDS011;21114;44.840;0.214;2024-02-16T15:09:45;7.43;;;1.83;;
34902;SDS011;21114;44.840;0.214;2024-02-16T15:12:11;15.18;;;3.20;;
34902;SDS011;21114;44.840;0.214;2024-02-16T15:14:37;7.80;;;1.45;;
34902;SDS011;21114;44.840;0.214;2024-02-16T15:17:03;7.78;;;2.13;;
34902;SDS011;21114;44.840;0.214;2024-02-16T15:19:31;5.95;;;1.52;;
34902;SDS011;21114;44.840;0.214;2024-02-16T15:21:57;8.20;;;1.55;;
34902;SDS011;21114;44.840;0.214;2024-02-16T15:24:52;4.43;;;1.10;;
34902;SDS011;21114;44.840;0.214;2024-02-16T15:27:18;6.47;;;1.73;;
34902;SDS011;21114;44.840;0.214;2024-02-16T15:29:44;4.70;;;2.25;;
34902;SDS011;21114;44.840;0.214;2024-02-16T15:32:10;7.88;;;3.72;;
34902;SDS011;21114;44.840;0.214;2024-02-16T15:34:36;5.43;;;1.55;;
34902;SDS011;21114;44.840;0.214;2024-02-16T15:37:02;7.72;;;1.85;;
34902;SDS011;21114;44.840;0.214;2024-02-16T15:40:17;7.15;;;2.60;;
34902;SDS011;21114;44.840;0.214;2024-02-16T15:43:31;3.78;;;1.88;;
34902;SDS011;21114;44.840;0.214;2024-02-16T15:46:46;17.45;;;3.45;;
34902;SDS011;21114;44.840;0.214;2024-02-16T15:50:00;3.95;;;1.42;;
34902;SDS011;21114;44.840;0.214;2024-02-16T15:52:27;5.22;;;1.38;;
34902;SDS011;21114;44.840;0.214;2024-02-16T15:54:53;4.95;;;2.15;;
34902;SDS011;21114;44.840;0.214;2024-02-16T15:58:08;4.20;;;1.98;;
34902;SDS011;21114;44.840;0.214;2024-02-16T16:01:24;5.63;;;1.52;;
34902;SDS011;21114;44.840;0.214;2024-02-16T16:04:39;8.50;;;3.13;;
34902;SDS011;21114;44.840;0.214;2024-02-16T16:07:55;5.47;;;0.80;;
34902;SDS011;21114;44.840;0.214;2024-02-16T16:11:12;4.80;;;1.67;;
34902;SDS011;21114;44.840;0.214;2024-02-16T16:14:27;5.75;;;1.60;;
34902;SDS011;21114;44.840;0.214;2024-02-16T16:16:53;4.57;;;1.92;;
34902;SDS011;21114;44.840;0.214;2024-02-16T16:20:08;5.57;;;1.70;;
34902;SDS011;21114;44.840;0.214;2024-02-16T16:23:22;5.18;;;2.22;;
34902;SDS011;21114;44.840;0.214;2024-02-16T16:25:48;9.32;;;3.70;;